(Duplicate)Nowata Airport

PG-0035 · Papua New Guinea

METAR history PG-0035 · (Duplicate)Nowata Airport

Below you see METARs of the last few days. Select a year to browse through older METARs, from the year 2007 onwards.

July 15, 2024

Time Code Weather Temp. Visibility Ceiling Wind METAR/SPECI
11:30
V
25 °C 10 km+ - 210° 210° 6 kt METAR DIAP 150130Z 21006KT 9999 FEW015 25/23 Q1015 NOSIG
11:00
V
25 °C 10 km+ - 230° 230° 8 kt METAR DIAP 150100Z 23008KT 9999 FEW015 25/23 Q1015 NOSIG
10:30
V
25 °C 10 km+ - 230° 230° 7 kt METAR DIAP 150030Z 23007KT 9999 FEW015 25/23 Q1016 NOSIG
10:00
V
25 °C 10 km+ - 220° 220° 6 kt METAR DIAP 150000Z 22006KT 9999 FEW020 SCT045 25/23 Q1016 NOSIG
09:30
V
25 °C 10 km+ 4,000 ft 230° 230° 5 kt METAR DIAP 142330Z 23005KT 9999 FEW020 BKN040 25/23 Q1016 NOSIG
09:00
V
25 °C 10 km+ - 230° 230° 4 kt METAR DIAP 142300Z 23004KT 9999 FEW020 SCT035 25/23 Q1016 NOSIG
08:30
V
25 °C 10 km+ - 250° 250° 5 kt METAR DIAP 142230Z 25005KT 9999 FEW020 25/23 Q1017 NOSIG
08:00
V
25 °C 10 km+ - 250° 250° 4 kt METAR DIAP 142200Z 25004KT 220V280 9999 FEW020 25/23 Q1017 NOSIG
07:30
V
25 °C 10 km+ 4,000 ft 240° 240° 4 kt METAR DIAP 142130Z 24004KT 9999 SCT020 BKN040 25/23 Q1017 NOSIG
07:00
V
25 °C 10 km+ - 240° 240° 4 kt METAR DIAP 142100Z 24004KT 200V260 9999 SCT017 SCT023 25/23 Q1016 NOSIG
06:30
V
25 °C 10 km+ - 250° 250° 5 kt METAR DIAP 142030Z 25005KT 9999 SCT020 25/23 Q1016 NOSIG
06:00
V
25 °C 10 km+ - 250° 250° 5 kt METAR DIAP 142000Z 25005KT 9999 FEW020 SCT025 25/23 Q1015 NOSIG
05:30
V
25 °C 10 km+ - 250° 250° 7 kt METAR DIAP 141930Z 25007KT 9999 FEW020 25/23 Q1015 NOSIG
05:00
V
25 °C 10 km+ - 240° 240° 7 kt METAR DIAP 141900Z 24007KT 9999 FEW020 25/23 Q1015 NOSIG
04:30
V
25 °C 10 km+ - 240° 240° 8 kt METAR DIAP 141830Z 24008KT 9999 FEW020 25/23 Q1014 NOSIG
04:00
V
26 °C 10 km+ - 250° 250° 8 kt METAR DIAP 141800Z 25008KT 9999 FEW020 26/23 Q1014 NOSIG
03:30
V
26 °C 10 km+ - 250° 250° 7 kt METAR DIAP 141730Z 25007KT 9999 FEW015 26/23 Q1014 NOSIG
03:00
V
27 °C 10 km+ - 240° 240° 9 kt METAR DIAP 141700Z 24009KT 9999 FEW015 27/23 Q1014 NOSIG
02:30
V
27 °C 10 km+ - 240° 240° 9 kt METAR DIAP 141630Z 24009KT 210V270 9999 FEW015 27/23 Q1014 NOSIG
02:00
V
27 °C 10 km+ - 240° 240° 10 kt METAR DIAP 141600Z 24010KT 9999 FEW015 27/23 Q1014 NOSIG
01:30
V
27 °C 10 km+ - 240° 240° 9 kt METAR DIAP 141530Z 24009KT 200V270 9999 FEW015 27/23 Q1014 NOSIG
01:00
V
27 °C 10 km+ - 230° 230° 11 kt METAR DIAP 141500Z 23011KT 9999 FEW015 27/23 Q1013 NOSIG
00:30
V
27 °C 10 km+ - 240° 240° 11 kt METAR DIAP 141430Z 24011KT 9999 SCT013 27/23 Q1014 NOSIG
00:00
M
28 °C 10 km+ 3,000 ft 240° 240° 10 kt METAR DIAP 141400Z 24010KT 9999 SCT013 BKN030 28/24 Q1014 NOSIG

July 14, 2024

Time Code Weather Temp. Visibility Ceiling Wind METAR/SPECI
23:30
M
27 °C 10 km+ 2,000 ft 240° 240° 10 kt METAR DIAP 141330Z 24010KT 9999 SCT013 BKN020 27/23 Q1015 NOSIG
23:00
M
27 °C 8 km 2,000 ft 240° 240° 9 kt METAR DIAP 141300Z 24009KT 8000 SCT013 BKN020 27/23 Q1015 NOSIG
22:30
M
27 °C 10 km+ 2,000 ft 230° 230° 10 kt METAR DIAP 141230Z 23010KT 9999 SCT013 BKN020 27/23 Q1015 NOSIG
22:00
V
28 °C 10 km+ - 230° 230° 11 kt METAR DIAP 141200Z 23011KT 200V260 9999 SCT013 SCT020 28/23 Q1016 NOSIG
21:30
V
28 °C 10 km+ - 240° 240° 11 kt METAR DIAP 141130Z 24011KT 9999 SCT013 28/23 Q1016 NOSIG
21:00
V
27 °C 10 km+ - 230° 230° 10 kt METAR DIAP 141100Z 23010KT 9999 FEW013 27/24 Q1016 NOSIG
20:30
V
27 °C 8 km - 220° 220° 10 kt METAR DIAP 141030Z 22010KT 8000 FEW013 27/24 Q1016 NOSIG
20:00
V
27 °C 8 km - 220° 220° 10 kt METAR DIAP 141000Z 22010KT 8000 FEW013 27/23 Q1016 NOSIG
19:30
V
27 °C 8 km - 210° 210° 8 kt METAR DIAP 140930Z 21008KT 8000 FEW013 27/24 Q1016 NOSIG
19:00
V
27 °C 8 km - 210° 210° 8 kt METAR DIAP 140900Z 21008KT 8000 FEW013 27/24 Q1016 NOSIG
18:30
V
26 °C 8 km - 210° 210° 7 kt METAR DIAP 140830Z 21007KT 8000 SCT013 26/24 Q1016 NOSIG
18:00
V
25 °C 8 km - 210° 210° 5 kt METAR DIAP 140800Z 21005KT 8000 SCT013 25/23 Q1016 NOSIG
17:30
V
25 °C 8 km 3,300 ft 210° 210° 3 kt METAR DIAP 140730Z 21003KT 8000 SCT013 BKN033 25/24 Q1016 NOSIG
17:00
V
25 °C 8 km 3,300 ft 200° 200° 3 kt METAR DIAP 140700Z 20003KT 8000 SCT013 BKN033 25/23 Q1015 NOSIG
16:30
V
25 °C 8 km 3,300 ft 210° 210° 3 kt METAR DIAP 140630Z 21003KT 8000 SCT013 BKN033 25/23 Q1015 NOSIG
16:00
V
25 °C 10 km+ - 240° 240° 3 kt METAR DIAP 140600Z 24003KT 9999 SCT013 25/23 Q1015 NOSIG
15:30
V
25 °C 10 km+ - 240° 240° 4 kt METAR DIAP 140530Z 24004KT 9999 SCT013 25/23 Q1014 NOSIG
15:00
V
25 °C 10 km+ - 220° 220° 4 kt METAR DIAP 140500Z 22004KT 9999 SCT013 25/23 Q1014 NOSIG
14:30
V
25 °C 10 km+ - 240° 240° 5 kt METAR DIAP 140430Z 24005KT 9999 SCT013 25/23 Q1014 NOSIG
14:00
V
25 °C 10 km+ - 240° 240° 5 kt METAR DIAP 140400Z 24005KT 9999 SCT013 25/23 Q1014 NOSIG
13:30
V
25 °C 10 km+ - 240° 240° 3 kt METAR DIAP 140330Z 24003KT 9999 SCT013 25/23 Q1014 NOSIG
13:00
V
25 °C 10 km+ - 230° 230° 3 kt METAR DIAP 140300Z 23003KT 200V280 9999 SCT013 25/23 Q1014 NOSIG
12:30
V
25 °C 10 km+ - 210° 210° 4 kt METAR DIAP 140230Z 21004KT 9999 SCT013 25/24 Q1014 NOSIG
12:00
V
25 °C 10 km+ - 240° 240° 5 kt METAR DIAP 140200Z 24005KT 9999 SCT013 25/23 Q1014 NOSIG
11:30
V
25 °C 10 km+ - 230° 230° 6 kt METAR DIAP 140130Z 23006KT 9999 SCT013 25/23 Q1014 NOSIG
11:00
V
25 °C 10 km+ - 210° 210° 4 kt METAR DIAP 140100Z 21004KT 9999 FEW013 25/23 Q1015 NOSIG
10:30
V
25 °C 10 km+ - 190° 190° 3 kt METAR DIAP 140030Z 19003KT 9999 FEW013 25/23 Q1015 NOSIG
10:00
V
25 °C 10 km+ - 190° 190° 3 kt METAR DIAP 140000Z 19003KT 9999 FEW013 25/23 Q1015 NOSIG
09:30
V
24 °C 10 km+ - 200° 200° 3 kt METAR DIAP 132330Z 20003KT 9999 FEW013 24/23 Q1015 NOSIG
09:00
V
25 °C 10 km+ - 230° 230° 3 kt METAR DIAP 132300Z 23003KT 9999 FEW013 25/23 Q1015 NOSIG
08:30
V
24 °C 10 km+ - 250° 250° 2 kt METAR DIAP 132230Z 25002KT 9999 SCT013 24/23 Q1015 NOSIG
08:00
V
25 °C 10 km+ - 230° 230° 5 kt METAR DIAP 132200Z 23005KT 9999 SCT013 25/23 Q1015 NOSIG
07:30
V
25 °C 10 km+ - 230° 230° 5 kt METAR DIAP 132130Z 23005KT 9999 SCT013 25/23 Q1015 NOSIG
07:00
V
25 °C 10 km+ - 240° 240° 5 kt METAR DIAP 132100Z 24005KT 9999 SCT013 25/23 Q1015 NOSIG
06:30
V
25 °C 10 km+ - 240° 240° 7 kt METAR DIAP 132030Z 24007KT 9999 SCT013 25/23 Q1014 NOSIG
06:00
V
26 °C 10 km+ 3,300 ft 220° 220° 6 kt METAR DIAP 132000Z 22006KT 9999 SCT013 BKN033 26/23 Q1014 NOSIG
05:30
V
26 °C 10 km+ 3,300 ft 210° 210° 7 kt METAR DIAP 131930Z 21007KT 9999 SCT013 BKN033 26/23 Q1014 NOSIG
05:00
V
26 °C 10 km+ 3,300 ft 210° 210° 7 kt METAR DIAP 131900Z 21007KT 9999 SCT013 BKN033 26/23 Q1014 NOSIG
04:30
V
26 °C 10 km+ 3,300 ft 210° 210° 6 kt METAR DIAP 131830Z 21006KT 9999 SCT013 BKN033 26/23 Q1014 NOSIG
04:00
V
26 °C 10 km+ 3,300 ft 210° 210° 6 kt METAR DIAP 131800Z 21006KT 9999 SCT013 BKN033 26/23 Q1014 NOSIG
03:30
V
27 °C 10 km+ - 220° 220° 8 kt METAR DIAP 131730Z 22008KT 9999 SCT013 27/23 Q1013 NOSIG
03:00
V
27 °C 10 km+ - 220° 220° 9 kt METAR DIAP 131700Z 22009KT 9999 SCT013 27/23 Q1013 NOSIG
02:30
V
27 °C 8 km 4,000 ft 210° 210° 8 kt METAR DIAP 131630Z 21008KT 8000 SCT013 BKN040 27/23 Q1013 NOSIG
02:00
V
27 °C 8 km 4,000 ft 230° 230° 9 kt METAR DIAP 131600Z 23009KT 8000 SCT013 BKN040 27/23 Q1013 NOSIG
01:30
V
27 °C 8 km 4,000 ft 220° 220° 9 kt METAR DIAP 131530Z 22009KT 8000 SCT013 BKN040 27/24 Q1013 NOSIG
01:00
V
27 °C 8 km 4,000 ft 210° 210° 9 kt METAR DIAP 131500Z 21009KT 8000 SCT013 BKN040 27/24 Q1013 NOSIG
00:30
V
27 °C 8 km 4,000 ft 210° 210° 8 kt METAR DIAP 131430Z 21008KT 8000 SCT013 BKN040 27/24 Q1013 NOSIG
00:00
V
28 °C 8 km 4,000 ft 210° 210° 9 kt METAR DIAP 131400Z 21009KT 180V240 8000 SCT013 BKN040 28/24 Q1013 NOSIG

July 13, 2024

Time Code Weather Temp. Visibility Ceiling Wind METAR/SPECI
23:30
V
28 °C 8 km 4,000 ft 210° 210° 9 kt METAR DIAP 131330Z 21009KT 8000 SCT013 BKN040 28/24 Q1014 NOSIG
23:00
V
27 °C 8 km 4,000 ft 210° 210° 7 kt METAR DIAP 131300Z 21007KT 8000 SCT013 BKN040 27/24 Q1014 NOSIG
22:30
V
27 °C 8 km 4,000 ft 210° 210° 7 kt METAR DIAP 131230Z 21007KT 8000 FEW006 SCT013 BKN040 27/24 Q1014 NOSIG
22:00
V
26 °C 8 km 4,000 ft 210° 210° 7 kt METAR DIAP 131200Z 21007KT 8000 SCT013 BKN040 26/25 Q1015 NOSIG
21:30
M
28 °C 7 km 4,000 ft 210° 210° 9 kt METAR DIAP 131130Z 21009KT 170V230 7000 -DZRA SCT006 SCT013 BKN040 28/24 Q1015 TEMPO 4000 RA
21:00
V
27 °C 8 km 4,000 ft 200° 200° 9 kt METAR DIAP 131100Z 20009KT 8000 SCT013 BKN040 27/24 Q1015 NOSIG
20:30
V
28 °C 8 km 4,000 ft 200° 200° 9 kt METAR DIAP 131030Z 20009KT 8000 SCT013 BKN040 28/24 Q1016 NOSIG
20:00
V
28 °C 8 km 4,000 ft 210° 210° 9 kt METAR DIAP 131000Z 21009KT 8000 SCT013 BKN040 28/24 Q1016 NOSIG
19:30
V
27 °C 8 km 4,000 ft 210° 210° 7 kt METAR DIAP 130930Z 21007KT 8000 SCT012 BKN040 27/24 Q1016 NOSIG
19:00
V
27 °C 8 km 4,000 ft 200° 200° 7 kt METAR DIAP 130900Z 20007KT 8000 SCT012 BKN040 27/24 Q1016 NOSIG
18:30
V
26 °C 8 km 4,000 ft 200° 200° 5 kt METAR DIAP 130830Z 20005KT 170V230 8000 SCT012 BKN040 26/24 Q1015 NOSIG
18:00
V
26 °C 9 km 3,700 ft 200° 200° 4 kt METAR DIAP 130800Z 20004KT 9000 SCT012 SCT021 BKN037 26/24 Q1015 NOSIG
17:30
V
25 °C 9 km 3,100 ft 210° 210° 4 kt METAR DIAP 130730Z 21004KT 9000 SCT012 SCT021 BKN031 25/23 Q1015 NOSIG
17:00
M
25 °C 9 km 3,000 ft 210° 210° 4 kt METAR DIAP 130700Z 21004KT 9000 SCT012 SCT017 BKN030 25/23 Q1015 NOSIG
16:40
M
25 °C 10 km+ 2,800 ft 220° 220° 3 kt SPECI DIAP 130640Z 22003KT 9999 SCT012 BKN028 BKN033 25/23 Q1015 NOSIG
16:03
M
25 °C 10 km+ 1,100 ft 200° 200° 4 kt SPECI DIAP 130603Z 20004KT 9999 SCT005 BKN011 BKN034 25/24 Q1015 TEMPO 4000 DZRA SCT004 BKN009 OVC030
15:30
V
25 °C 10 km+ 4,500 ft 210° 210° 5 kt METAR DIAP 130530Z 21005KT 9999 FEW011 BKN045 25/24 Q1014 NOSIG
15:00
V
25 °C 10 km+ 4,500 ft 210° 210° 4 kt METAR DIAP 130500Z 21004KT 9999 FEW011 SCT027 BKN045 25/24 Q1014 NOSIG
14:30
V
25 °C 10 km+ 3,400 ft 210° 210° 4 kt METAR DIAP 130430Z 21004KT 9999 FEW011 BKN034 25/24 Q1014 NOSIG
14:00
M
25 °C 10 km+ 3,000 ft 210° 210° 4 kt METAR DIAP 130400Z 21004KT 9999 FEW011 SCT015 BKN030 25/24 Q1014 NOSIG
13:30
M
25 °C 10 km+ 2,500 ft 210° 210° 5 kt METAR DIAP 130330Z 21005KT 9999 FEW010 SCT016 BKN025 25/24 Q1014 NOSIG
13:00
M
25 °C 9 km 2,700 ft 210° 210° 6 kt METAR DIAP 130300Z 21006KT 9000 FEW010 SCT023 BKN027 25/24 Q1014 NOSIG
12:30
M
25 °C 9 km 3,000 ft 200° 200° 4 kt METAR DIAP 130230Z 20004KT 9000 FEW010 SCT020 BKN030 25/24 Q1014 NOSIG
12:00
M
25 °C 9 km 3,000 ft 210° 210° 4 kt METAR DIAP 130200Z 21004KT 9000 -DZRA FEW010 SCT016 BKN030 25/24 Q1014 TEMPO 4000 DZRA FEW004 BKN010 OVC030
11:30
V
25 °C 9 km 3,500 ft 230° 230° 5 kt METAR DIAP 130130Z 23005KT 9000 FEW010 SCT020 BKN035 25/23 Q1014 TEMPO 4000 DZRA SCT004 BKN010 OVC030
11:00
V
25 °C 9 km 4,200 ft 230° 230° 6 kt METAR DIAP 130100Z 23006KT 9000 FEW010 SCT016 BKN042 25/24 Q1014 TEMPO 4000 DZRA SCT004 BKN010 OVC030
10:30
V
25 °C 9 km 4,200 ft 210° 210° 4 kt METAR DIAP 130030Z 21004KT 9000 -DZRA FEW010 SCT016 BKN042 25/24 Q1014 TEMPO 4000 DZRA SCT004 BKN010 OVC030
10:00
M
25 °C 8 km 1,800 ft 210° 210° 4 kt METAR DIAP 130000Z 21004KT 8000 -DZRA SCT010 BKN018 OVC030 25/24 Q1015 TEMPO 4000 DZRA SCT004 BKN010 OVC030
09:30
M
25 °C 6 km 2,600 ft 220° 220° 6 kt METAR DIAP 122330Z 22006KT 6000 -DZRA FEW005 SCT010 BKN026 25/23 Q1015 TEMPO 4000 DZRA SCT004 BKN010 OVC030
09:00
M
25 °C 9 km 2,600 ft 220° 220° 4 kt METAR DIAP 122300Z 22004KT 9000 -DZRA SCT011 BKN026 BKN031 25/24 Q1015 TEMPO 4000 DZRA BKN010 OVC030
08:30
M
25 °C 8 km 2,000 ft 190° 190° 4 kt METAR DIAP 122230Z 19004KT 8000 -DZRA SCT011 BKN020 OVC030 25/24 Q1015 TEMPO 4000 DZRA BKN010 OVC030
08:00
M
26 °C 10 km+ 3,000 ft 200° 200° 6 kt METAR DIAP 122200Z 20006KT 9999 FEW011 SCT023 BKN030 26/23 Q1015 NOSIG
07:30
M
25 °C 10 km+ 3,000 ft 200° 200° 6 kt METAR DIAP 122130Z 20006KT 9999 FEW011 SCT021 BKN030 25/24 Q1014 NOSIG
07:00
V
25 °C 10 km+ 4,400 ft 210° 210° 5 kt METAR DIAP 122100Z 21005KT 9999 FEW011 SCT024 BKN044 25/24 Q1014 NOSIG
06:30
M
25 °C 8 km 2,000 ft 240° 240° 6 kt METAR DIAP 122030Z 24006KT 8000 -DZRA SCT010 BKN020 BKN030 25/24 Q1014 TEMPO 4000 DZRA BKN010 OVC030
06:00
M
25 °C 8 km 2,400 ft 250° 250° 5 kt METAR DIAP 122000Z 25005KT 8000 -DZ SCT010 BKN024 BKN030 25/24 Q1014 TEMPO 4000 RA BKN010 OVC030
05:30
M
25 °C 8 km 2,400 ft 250° 250° 5 kt METAR DIAP 121930Z 25005KT 220V280 8000 -DZ SCT010 BKN024 BKN030 25/24 Q1013 TEMPO 4000 RA BKN010 OVC030
05:00
V
25 °C 8 km 4,000 ft 210° 210° 4 kt METAR DIAP 121900Z 21004KT 8000 SCT010 SCT024 BKN040 25/24 Q1013 TEMPO 4000 RA BKN010 OVC030
04:30
V
25 °C 8 km 4,400 ft 210° 210° 4 kt METAR DIAP 121830Z 21004KT 8000 SCT010 BKN044 25/24 Q1013 TEMPO 4000 RA BKN010 OVC030
04:00
V
26 °C 8 km 4,400 ft 230° 230° 6 kt METAR DIAP 121800Z 23006KT 8000 SCT011 SCT021 BKN044 26/24 Q1013 TEMPO 4000 RA BKN010 OVC030
03:30
V
26 °C 8 km 4,000 ft 230° 230° 6 kt METAR DIAP 121730Z 23006KT 8000 SCT011 SCT024 BKN040 26/24 Q1013 TEMPO 4000 RA BKN010 OVC030
03:00
M
25 °C 8 km 1,700 ft 230° 230° 7 kt METAR DIAP 121700Z 23007KT 8000 -RA SCT011 BKN017 BKN027 25/24 Q1012 TEMPO 4000 RA BKN010 OVC030
02:30
M
26 °C 8 km 1,800 ft 230° 230° 8 kt METAR DIAP 121630Z 23008KT 8000 SCT011 BKN018 OVC030 26/24 Q1012 NOSIG
02:00
M
26 °C 9 km 2,000 ft 210° 210° 6 kt METAR DIAP 121600Z 21006KT 9000 SCT010 BKN020 OVC030 26/24 Q1012 NOSIG
01:30
M
26 °C 9 km 2,000 ft 210° 210° 6 kt METAR DIAP 121530Z 21006KT 9000 SCT010 BKN020 OVC030 26/24 Q1012 NOSIG
01:00
M
26 °C 9 km 2,000 ft 210° 210° 7 kt METAR DIAP 121500Z 21007KT 9000 SCT010 BKN020 OVC030 26/24 Q1012 NOSIG
00:30
M
26 °C 9 km 2,000 ft 210° 210° 6 kt METAR DIAP 121430Z 21006KT 9000 SCT010 BKN020 OVC030 26/24 Q1013 NOSIG
00:00
M
26 °C 9 km 2,000 ft 210° 210° 6 kt METAR DIAP 121400Z 21006KT 9000 SCT010 BKN020 OVC030 26/24 Q1013 NOSIG

July 12, 2024

Time Code Weather Temp. Visibility Ceiling Wind METAR/SPECI
23:30
M
26 °C 9 km 2,000 ft 230° 230° 8 kt METAR DIAP 121330Z 23008KT 9000 SCT010 BKN020 OVC030 26/24 Q1014 TEMPO 4000 DZRA
23:00
M
26 °C 9 km 2,000 ft 230° 230° 8 kt METAR DIAP 121300Z 23008KT 9000 SCT010 BKN020 OVC035 26/24 Q1014 TEMPO 4000 DZRA
22:30
M
26 °C 9 km 2,000 ft 220° 220° 8 kt METAR DIAP 121230Z 22008KT 9000 SCT010 BKN020 OVC035 26/24 Q1014 TEMPO 4000 DZRA
22:00
M
26 °C 9 km 2,000 ft 240° 240° 7 kt METAR DIAP 121200Z 24007KT 9000 SCT010 BKN020 OVC035 26/24 Q1015 TEMPO 4000 DZRA
21:30
M
27 °C 10 km+ 2,000 ft 240° 240° 6 kt METAR DIAP 121130Z 24006KT 210V270 9999 SCT010 BKN020 BKN030 27/25 Q1015 TEMPO 4000 DZRA
21:00
M
26 °C 10 km+ 2,000 ft 240° 240° 5 kt METAR DIAP 121100Z 24005KT 210V270 9999 SCT010 BKN020 BKN030 26/24 Q1015 TEMPO 4000 DZRA
20:30
M
26 °C 8 km 2,000 ft 240° 240° 6 kt METAR DIAP 121030Z 24006KT 8000 -DZ SCT010 BKN020 OVC030 26/25 Q1015 RERA TEMPO 4000 RA
20:13
M
26 °C 7 km 2,000 ft 220° 220° 6 kt SPECI DIAP 121013Z 22006KT 7000 -DZRA SCT010 BKN020 OVC030 26/24 Q1015 RERA TEMPO 4000 RA
20:00
I
25 °C 4 km 1,000 ft 220° 220° 8 kt METAR DIAP 121000Z 22008KT 4000 DZRA BKN010 BKN020 OVC030 25/24 Q1015 TEMPO 2000 RA
19:30
I
25 °C 4 km 1,000 ft 230° 230° 7 kt METAR DIAP 120930Z 23007KT 200V260 4000 DZRA BKN010 BKN020 OVC030 25/24 Q1015 TEMPO 2000 RA
19:00
I
25 °C 4 km 900 ft 210° 210° 7 kt METAR DIAP 120900Z 21007KT 4000 DZRA BKN009 BKN020 OVC034 25/24 Q1015 TEMPO 2000 RA
18:30
I
24 °C 4 km 900 ft 210° 210° 8 kt METAR DIAP 120830Z 21008KT 4000 DZRA BKN009 BKN020 OVC034 24/23 Q1015 TEMPO 2000 RA
18:12
I
24 °C 4 km 900 ft 210° 210° 9 kt SPECI DIAP 120812Z 21009KT 4000 DZRA BKN009 BKN020 OVC034 24/24 Q1015 TEMPO 2000 RA
17:30
M
24 °C 8 km 1,600 ft 230° 230° 6 kt METAR DIAP 120730Z 23006KT 210V270 8000 -RA SCT010 BKN016 24/23 Q1015 TEMPO 3000 DZRA BKN010 OVC021
17:00
M
25 °C 7 km 1,600 ft 250° 250° 5 kt METAR DIAP 120700Z 25005KT 7000 -RA SCT010 BKN016 25/23 Q1014 TEMPO 3000 DZRA BKN010 OVC021
16:30
M
25 °C 7 km 1,600 ft 260° 260° 5 kt METAR DIAP 120630Z 26005KT 7000 SCT010 BKN016 25/23 Q1014 TEMPO 3000 DZRA BKN010 OVC021
16:00
M
24 °C 8 km 2,400 ft 260° 260° 4 kt METAR DIAP 120600Z 26004KT 8000 SCT010 BKN024 24/23 Q1014 TEMPO 3000 DZRA BKN010 OVC024
Report a change